createdAt,value
2023-03-03T00:03:24.684Z,16.20
2023-03-03T00:05:58.514Z,14.95
2023-03-03T00:08:34.573Z,14.75
2023-03-03T00:11:03.377Z,15.25
2023-03-03T00:13:32.819Z,15.98
2023-03-03T00:16:16.446Z,14.05
2023-03-03T00:18:47.979Z,15.05
2023-03-03T00:21:49.270Z,14.90
2023-03-03T00:24:23.469Z,14.13
2023-03-03T00:26:52.168Z,14.05
2023-03-03T00:29:28.028Z,13.18
2023-03-03T00:31:55.199Z,14.55
2023-03-03T00:34:27.141Z,14.45
2023-03-03T00:36:59.377Z,15.23
2023-03-03T00:39:36.760Z,14.35
2023-03-03T00:42:13.578Z,13.70
2023-03-03T00:44:48.670Z,13.57
2023-03-03T00:47:37.000Z,13.68
2023-03-03T00:50:06.936Z,14.00
2023-03-03T00:52:39.517Z,13.75
2023-03-03T00:55:07.899Z,13.40
2023-03-03T00:57:34.912Z,13.45
2023-03-03T01:00:01.590Z,13.85
2023-03-03T01:02:28.339Z,15.17
2023-03-03T01:04:57.944Z,13.52
2023-03-03T01:07:25.825Z,13.95
2023-03-03T01:09:52.996Z,13.30
2023-03-03T01:12:19.760Z,13.25
2023-03-03T01:14:46.617Z,14.00
2023-03-03T01:17:13.340Z,13.60
2023-03-03T01:19:40.027Z,13.15
2023-03-03T01:22:07.080Z,13.93
2023-03-03T01:24:33.783Z,13.18
2023-03-03T01:27:00.540Z,12.88
2023-03-03T01:29:27.263Z,14.65
2023-03-03T01:31:54.044Z,13.48
2023-03-03T01:34:20.889Z,13.32
2023-03-03T01:36:47.765Z,13.57
2023-03-03T01:39:15.154Z,13.57
2023-03-03T01:41:41.971Z,13.68
2023-03-03T01:44:14.401Z,13.40
2023-03-03T01:46:52.628Z,12.50
2023-03-03T01:49:43.108Z,13.15
2023-03-03T01:52:38.217Z,13.23
2023-03-03T01:55:11.625Z,13.55
2023-03-03T01:57:43.341Z,12.80
2023-03-03T02:00:11.440Z,14.30
2023-03-03T02:02:39.667Z,14.18
2023-03-03T02:05:11.353Z,11.90
2023-03-03T02:07:38.728Z,13.60
2023-03-03T02:10:07.706Z,12.77
2023-03-03T02:12:40.512Z,13.70
2023-03-03T02:15:19.072Z,13.27
2023-03-03T02:17:48.558Z,13.55
2023-03-03T02:20:37.170Z,11.38
2023-03-03T02:23:15.941Z,12.57
2023-03-03T02:25:52.240Z,13.60
2023-03-03T02:28:19.061Z,12.95
2023-03-03T02:30:46.652Z,13.43
2023-03-03T02:33:13.611Z,12.90
2023-03-03T02:35:41.942Z,12.90
2023-03-03T02:38:20.746Z,13.23
2023-03-03T02:40:52.481Z,13.13
2023-03-03T02:43:22.904Z,12.52
2023-03-03T02:48:16.583Z,13.05
2023-03-03T02:50:43.291Z,13.35
2023-03-03T02:53:10.039Z,13.77
2023-03-03T02:55:36.824Z,14.80
2023-03-03T02:58:04.422Z,12.85
2023-03-03T03:00:32.561Z,12.05
2023-03-03T03:02:59.349Z,12.55
2023-03-03T03:05:26.089Z,13.73
2023-03-03T03:07:52.871Z,12.73
2023-03-03T03:10:20.019Z,13.15
2023-03-03T03:12:46.856Z,14.15
2023-03-03T03:15:13.709Z,13.10
2023-03-03T03:17:40.382Z,14.15
2023-03-03T03:20:07.443Z,12.75
2023-03-03T03:22:34.621Z,14.35
2023-03-03T03:25:02.021Z,13.13
2023-03-03T03:27:28.701Z,14.23
2023-03-03T03:29:55.425Z,13.27
2023-03-03T03:32:22.372Z,14.05
2023-03-03T03:34:49.287Z,13.18
2023-03-03T03:37:15.938Z,12.85
2023-03-03T03:39:42.818Z,13.20
2023-03-03T03:42:10.068Z,13.70
2023-03-03T03:44:36.752Z,13.13
2023-03-03T03:47:03.734Z,13.88
2023-03-03T03:49:30.615Z,14.18
2023-03-03T03:51:57.765Z,14.18
2023-03-03T03:54:24.935Z,14.43
2023-03-03T03:56:52.602Z,14.88
2023-03-03T03:59:20.192Z,13.07
2023-03-03T04:01:48.321Z,14.43
2023-03-03T04:04:16.454Z,12.87
2023-03-03T04:06:43.219Z,14.13
2023-03-03T04:09:09.955Z,13.82
2023-03-03T04:11:39.188Z,14.60
2023-03-03T04:14:09.214Z,14.02
2023-03-03T04:16:36.027Z,13.27
2023-03-03T04:19:02.734Z,13.98
2023-03-03T04:21:30.535Z,14.85
2023-03-03T04:23:57.303Z,14.53
2023-03-03T04:26:24.108Z,14.17
2023-03-03T04:31:17.314Z,13.80
2023-03-03T04:33:44.194Z,14.88
2023-03-03T04:36:11.012Z,13.85
2023-03-03T04:38:37.722Z,15.17
2023-03-03T04:41:04.581Z,13.48
2023-03-03T04:43:32.205Z,15.63
2023-03-03T04:45:59.000Z,14.10
2023-03-03T04:48:25.809Z,14.60
2023-03-03T04:50:52.493Z,13.85
2023-03-03T04:53:19.189Z,15.23
2023-03-03T04:55:46.079Z,14.00
2023-03-03T04:58:13.193Z,15.20
2023-03-03T05:00:40.246Z,14.63
2023-03-03T05:03:07.585Z,14.45
2023-03-03T05:05:34.422Z,15.43
2023-03-03T05:08:01.088Z,15.87
2023-03-03T05:10:27.928Z,16.50
2023-03-03T05:12:54.689Z,14.48
2023-03-03T05:15:21.456Z,15.27
2023-03-03T05:17:48.166Z,14.90
2023-03-03T05:20:15.538Z,14.80
2023-03-03T05:22:42.225Z,15.18
2023-03-03T05:25:10.807Z,16.35
2023-03-03T05:27:37.466Z,15.57
2023-03-03T05:30:05.141Z,16.47
2023-03-03T05:32:32.492Z,15.43
2023-03-03T05:34:59.204Z,15.68
2023-03-03T05:37:25.967Z,15.67
2023-03-03T05:39:52.675Z,15.18
2023-03-03T05:42:20.121Z,14.87
2023-03-03T05:44:46.977Z,15.25
2023-03-03T05:47:13.806Z,14.63
2023-03-03T05:49:40.854Z,13.30
2023-03-03T05:52:09.211Z,16.47
2023-03-03T05:54:36.044Z,15.75
2023-03-03T05:57:03.416Z,15.70
2023-03-03T05:59:30.389Z,15.57
2023-03-03T06:01:57.343Z,15.63
2023-03-03T06:04:24.220Z,15.50
2023-03-03T06:09:20.347Z,15.00
2023-03-03T06:11:47.171Z,15.00
2023-03-03T06:14:13.968Z,16.13
2023-03-03T06:16:40.824Z,16.17
2023-03-03T06:19:07.905Z,16.37
2023-03-03T06:21:34.566Z,17.53
2023-03-03T06:24:01.628Z,15.57
2023-03-03T06:26:28.489Z,16.63
2023-03-03T06:28:56.023Z,16.50
2023-03-03T06:31:23.703Z,17.38
2023-03-03T06:33:52.309Z,15.88
2023-03-03T06:36:19.850Z,15.73
2023-03-03T06:38:47.208Z,17.33
2023-03-03T06:41:13.969Z,16.00
2023-03-03T06:43:40.753Z,15.37
2023-03-03T06:46:07.507Z,16.80
2023-03-03T06:48:34.312Z,17.13
2023-03-03T06:51:03.316Z,17.80
2023-03-03T06:53:33.368Z,17.10
2023-03-03T06:56:02.053Z,16.77
2023-03-03T06:58:30.255Z,17.25
2023-03-03T07:01:01.811Z,15.63
2023-03-03T07:03:34.630Z,17.05
2023-03-03T07:06:03.543Z,17.08
2023-03-03T07:08:32.619Z,17.23
2023-03-03T07:11:08.333Z,17.77
2023-03-03T07:13:46.728Z,17.30
2023-03-03T07:16:15.942Z,16.90
2023-03-03T07:18:52.364Z,17.73
2023-03-03T07:21:31.021Z,18.13
2023-03-03T07:24:00.567Z,17.00
2023-03-03T07:26:34.919Z,17.35
2023-03-03T07:29:28.372Z,16.92
2023-03-03T07:31:58.336Z,17.13
2023-03-03T07:34:42.998Z,18.27
2023-03-03T07:37:20.497Z,18.30
2023-03-03T07:42:33.895Z,16.48
2023-03-03T07:45:01.976Z,18.58
2023-03-03T07:47:36.191Z,22.13
2023-03-03T07:50:31.220Z,19.92
2023-03-03T07:53:01.821Z,21.00
2023-03-03T07:55:28.466Z,20.83
2023-03-03T07:58:00.013Z,21.30
2023-03-03T08:00:26.785Z,20.50
2023-03-03T08:03:21.074Z,20.75
2023-03-03T08:05:49.783Z,19.05
2023-03-03T08:08:45.338Z,22.33
2023-03-03T08:11:12.092Z,25.23
2023-03-03T08:13:42.215Z,25.45
2023-03-03T08:16:12.526Z,21.33
2023-03-03T08:21:28.227Z,20.88
2023-03-03T08:23:55.770Z,19.23
2023-03-03T08:26:23.561Z,20.70
2023-03-03T08:31:27.975Z,28.20
2023-03-03T08:34:04.774Z,27.95
2023-03-03T08:36:33.673Z,24.27
2023-03-03T08:39:01.608Z,23.13
2023-03-03T08:41:28.364Z,21.00
2023-03-03T08:43:55.315Z,22.52
2023-03-03T08:46:23.458Z,23.17
2023-03-03T08:51:17.119Z,22.45
2023-03-03T08:53:43.977Z,21.25
2023-03-03T08:56:10.728Z,21.52
2023-03-03T08:58:37.867Z,23.20
2023-03-03T09:01:05.258Z,21.33
2023-03-03T09:03:32.100Z,21.42
2023-03-03T09:05:59.512Z,19.50
2023-03-03T09:08:26.162Z,22.58
2023-03-03T09:10:52.881Z,20.23
2023-03-03T09:13:20.659Z,22.85
2023-03-03T09:15:49.214Z,20.98
2023-03-03T09:18:26.626Z,21.95
2023-03-03T09:20:54.428Z,22.58
2023-03-03T09:23:23.940Z,20.88
2023-03-03T09:25:52.398Z,22.00
2023-03-03T09:28:30.953Z,21.77
2023-03-03T09:31:03.363Z,21.48
2023-03-03T09:33:45.427Z,21.98
2023-03-03T09:36:35.657Z,22.27
2023-03-03T09:39:23.724Z,22.92
2023-03-03T09:41:51.666Z,22.38
2023-03-03T09:44:27.287Z,22.30
2023-03-03T09:47:12.229Z,22.00
2023-03-03T09:52:52.410Z,21.35
2023-03-03T09:55:52.789Z,22.92
2023-03-03T09:58:27.620Z,21.90
2023-03-03T10:01:00.346Z,21.55
2023-03-03T10:03:46.984Z,22.25
2023-03-03T10:06:29.302Z,20.67
2023-03-03T10:09:06.867Z,21.73
2023-03-03T10:11:45.418Z,20.98
2023-03-03T10:14:21.151Z,21.08
2023-03-03T10:16:52.505Z,21.73
2023-03-03T10:19:38.046Z,21.25
2023-03-03T10:22:24.347Z,21.42
2023-03-03T10:24:52.767Z,21.63
2023-03-03T10:27:44.244Z,21.85
2023-03-03T10:30:40.851Z,21.17
2023-03-03T10:33:52.741Z,20.73
2023-03-03T10:36:35.462Z,20.55
2023-03-03T10:39:36.656Z,21.20
2023-03-03T10:42:24.913Z,21.25
2023-03-03T10:44:52.487Z,20.05
2023-03-03T10:47:40.795Z,19.92
2023-03-03T10:50:32.482Z,21.55
2023-03-03T10:53:08.233Z,19.80
2023-03-03T10:55:52.606Z,20.33
2023-03-03T10:58:52.583Z,19.73
2023-03-03T11:01:52.439Z,20.27
2023-03-03T11:04:38.107Z,18.73
2023-03-03T11:07:18.026Z,18.85
2023-03-03T11:09:52.516Z,18.90
2023-03-03T11:12:22.867Z,20.10
2023-03-03T11:14:52.628Z,20.08
2023-03-03T11:20:37.876Z,19.45
2023-03-03T11:23:22.647Z,20.80
2023-03-03T11:25:53.374Z,20.38
2023-03-03T11:28:52.441Z,19.17
2023-03-03T11:31:34.563Z,18.83
2023-03-03T11:34:12.768Z,19.10
2023-03-03T11:36:52.675Z,19.13
2023-03-03T11:39:28.196Z,20.38
2023-03-03T11:42:11.004Z,18.02
2023-03-03T11:47:31.397Z,18.88
2023-03-03T11:50:09.200Z,19.25
2023-03-03T11:52:51.603Z,18.98
2023-03-03T11:55:25.105Z,18.75
2023-03-03T11:57:57.601Z,18.20
2023-03-03T12:00:52.552Z,18.25
2023-03-03T12:03:32.395Z,17.75
2023-03-03T12:06:29.436Z,17.92
2023-03-03T12:09:08.015Z,18.08
2023-03-03T12:11:54.151Z,18.08
2023-03-03T12:14:42.143Z,17.80
2023-03-03T12:17:31.278Z,19.10
2023-03-03T12:20:15.275Z,19.17
2023-03-03T12:23:05.790Z,17.98
2023-03-03T12:25:38.812Z,18.73
2023-03-03T12:28:32.327Z,18.48
2023-03-03T12:31:22.998Z,18.98
2023-03-03T12:33:52.512Z,17.50
2023-03-03T12:36:37.660Z,18.40
2023-03-03T12:39:34.795Z,19.48
2023-03-03T12:42:20.649Z,17.23
2023-03-03T12:44:53.054Z,17.55
2023-03-03T12:47:30.345Z,18.30
2023-03-03T12:50:18.405Z,18.15
2023-03-03T12:52:56.919Z,17.92
2023-03-03T12:55:52.579Z,18.63
2023-03-03T12:58:26.675Z,18.50
2023-03-03T13:01:17.902Z,19.45
2023-03-03T13:03:56.131Z,18.73
2023-03-03T13:06:31.155Z,18.25
2023-03-03T13:09:35.198Z,19.50
2023-03-03T13:12:40.280Z,18.15
2023-03-03T13:15:16.095Z,18.50
2023-03-03T13:17:52.712Z,16.58
2023-03-03T13:20:47.323Z,16.35
2023-03-03T13:23:32.309Z,17.05
2023-03-03T13:26:06.193Z,17.30
2023-03-03T13:28:52.665Z,16.70
2023-03-03T13:31:22.615Z,16.73
2023-03-03T13:33:55.227Z,17.00
2023-03-03T13:39:26.148Z,16.35
2023-03-03T13:42:19.927Z,15.85
2023-03-03T13:50:38.419Z,14.85
2023-03-03T13:53:18.182Z,16.58
2023-03-03T13:55:51.681Z,14.85
2023-03-03T13:58:45.149Z,15.52
2023-03-03T14:01:19.007Z,15.80
2023-03-03T14:03:52.732Z,14.98
2023-03-03T14:06:23.491Z,14.57
2023-03-03T14:08:52.747Z,14.70
2023-03-03T14:11:52.633Z,14.25
2023-03-03T14:14:35.902Z,14.50
2023-03-03T14:17:09.716Z,13.23
2023-03-03T14:19:52.815Z,13.35
2023-03-03T14:22:30.396Z,12.63
2023-03-03T14:25:07.948Z,12.88
2023-03-03T14:27:49.105Z,13.05
2023-03-03T14:30:25.028Z,12.20
2023-03-03T14:32:52.651Z,11.75
2023-03-03T14:35:21.448Z,13.30
2023-03-03T14:40:22.449Z,10.50
2023-03-03T14:42:52.634Z,10.07
2023-03-03T14:45:31.480Z,9.05
2023-03-03T14:47:59.828Z,9.70
2023-03-03T14:50:38.907Z,11.18
2023-03-03T14:53:12.833Z,11.32
2023-03-03T14:55:42.723Z,10.38
2023-03-03T14:58:26.354Z,11.63
2023-03-03T15:01:16.778Z,10.63
2023-03-03T15:03:52.748Z,11.73
2023-03-03T15:06:44.765Z,10.82
2023-03-03T15:09:38.444Z,11.43
2023-03-03T15:12:36.642Z,11.82
2023-03-03T15:15:06.215Z,11.85
2023-03-03T15:17:52.622Z,12.05
2023-03-03T15:20:46.213Z,11.20
2023-03-03T15:23:48.134Z,12.80
2023-03-03T15:26:33.446Z,11.80
2023-03-03T15:29:25.101Z,12.35
2023-03-03T15:31:51.999Z,11.10
2023-03-03T15:34:33.685Z,12.38
2023-03-03T15:37:24.769Z,12.05
2023-03-03T15:39:51.767Z,11.82
2023-03-03T15:42:35.894Z,12.38
2023-03-03T15:45:08.864Z,12.10
2023-03-03T15:47:38.716Z,12.30
2023-03-03T15:50:36.489Z,11.27
2023-03-03T15:53:15.051Z,11.68
2023-03-03T15:55:52.745Z,11.40
2023-03-03T15:58:19.452Z,11.07
2023-03-03T16:00:52.710Z,11.48
2023-03-03T16:03:36.555Z,11.43
2023-03-03T16:06:13.226Z,11.60
2023-03-03T16:08:52.789Z,11.20
2023-03-03T16:11:28.897Z,11.40
2023-03-03T16:14:22.463Z,10.73
2023-03-03T16:16:52.938Z,10.52
2023-03-03T16:19:38.012Z,11.05
2023-03-03T16:22:41.271Z,10.00
2023-03-03T16:25:23.418Z,10.10
2023-03-03T16:27:56.329Z,10.15
2023-03-03T16:30:32.938Z,9.70
2023-03-03T16:33:18.402Z,10.25
2023-03-03T16:38:37.544Z,9.35
2023-03-03T16:41:12.957Z,10.85
2023-03-03T16:43:48.789Z,10.27
2023-03-03T16:46:29.954Z,10.45
2023-03-03T16:49:27.542Z,9.48
2023-03-03T16:52:12.619Z,9.35
2023-03-03T16:57:23.818Z,9.57
2023-03-03T16:59:51.672Z,9.45
2023-03-03T17:02:48.596Z,9.38
2023-03-03T17:05:53.181Z,8.82
2023-03-03T17:08:36.246Z,10.23
2023-03-03T17:11:09.734Z,9.30
2023-03-03T17:13:52.690Z,10.93
2023-03-03T17:16:22.107Z,10.02
2023-03-03T17:18:51.758Z,11.40
2023-03-03T17:21:52.986Z,10.57
2023-03-03T17:24:48.770Z,11.23
2023-03-03T17:27:25.109Z,11.27
2023-03-03T17:29:56.975Z,11.25
2023-03-03T17:32:49.839Z,10.27
2023-03-03T17:35:19.397Z,11.80
2023-03-03T17:37:52.670Z,11.60
2023-03-03T17:40:37.390Z,11.73
2023-03-03T17:43:12.498Z,11.40
2023-03-03T17:45:43.400Z,10.73
2023-03-03T17:51:52.971Z,9.60
2023-03-03T17:54:49.199Z,8.88
2023-03-03T17:57:25.028Z,9.75
2023-03-03T17:59:53.266Z,9.43
2023-03-03T18:02:25.961Z,9.27
2023-03-03T18:05:16.211Z,8.60
2023-03-03T18:07:52.787Z,7.38
2023-03-03T18:10:52.678Z,8.43
2023-03-03T18:13:39.616Z,7.82
2023-03-03T18:16:12.696Z,8.02
2023-03-03T18:18:39.654Z,7.93
2023-03-03T18:21:14.769Z,7.38
2023-03-03T18:23:44.159Z,7.40
2023-03-03T18:26:34.689Z,8.45
2023-03-03T18:29:21.738Z,8.70
2023-03-03T18:31:51.822Z,9.18
2023-03-03T18:34:21.566Z,10.13
2023-03-03T18:36:53.024Z,10.55
2023-03-03T18:39:45.862Z,9.30
2023-03-03T18:42:15.985Z,9.15
2023-03-03T18:44:48.112Z,9.00
2023-03-03T18:47:17.334Z,8.93
2023-03-03T18:49:54.137Z,9.60
2023-03-03T18:52:27.569Z,8.90
2023-03-03T18:55:12.221Z,9.00
2023-03-03T18:57:39.780Z,9.20
2023-03-03T19:00:22.340Z,7.95
2023-03-03T19:02:53.040Z,8.43
2023-03-03T19:05:50.224Z,8.32
2023-03-03T19:08:25.161Z,9.30
2023-03-03T19:10:52.717Z,9.00
2023-03-03T19:13:35.002Z,8.45
2023-03-03T19:16:07.061Z,8.80
2023-03-03T19:18:48.073Z,8.98
2023-03-03T19:21:43.244Z,9.32
2023-03-03T19:24:34.140Z,8.35
2023-03-03T19:27:00.988Z,8.88
2023-03-03T19:29:46.399Z,9.05
2023-03-03T19:32:31.176Z,9.23
2023-03-03T19:35:26.100Z,9.10
2023-03-03T19:38:19.366Z,9.20
2023-03-03T19:40:51.863Z,9.63
2023-03-03T19:43:27.516Z,9.52
2023-03-03T19:46:31.112Z,8.80
2023-03-03T19:49:35.682Z,8.85
2023-03-03T19:52:19.012Z,9.45
2023-03-03T19:57:34.956Z,9.90
2023-03-03T20:00:16.512Z,9.30
2023-03-03T20:02:56.452Z,9.15
2023-03-03T20:05:52.734Z,8.32
2023-03-03T20:08:25.534Z,9.32
2023-03-03T20:11:17.815Z,9.23
2023-03-03T20:13:53.050Z,8.93
2023-03-03T20:16:28.981Z,9.02
2023-03-03T20:19:26.423Z,8.63
2023-03-03T20:22:22.178Z,8.80
2023-03-03T20:24:52.817Z,8.68
2023-03-03T20:27:46.450Z,8.95
2023-03-03T20:30:47.761Z,8.75
2023-03-03T20:33:36.987Z,8.38
2023-03-03T20:36:25.145Z,8.18
2023-03-03T20:38:52.844Z,8.77
2023-03-03T20:41:52.746Z,8.55
2023-03-03T20:47:43.705Z,8.70
2023-03-03T20:50:15.739Z,8.00
2023-03-03T20:52:52.874Z,9.05
2023-03-03T20:55:25.717Z,8.68
2023-03-03T20:57:56.057Z,8.73
2023-03-03T21:00:30.086Z,8.23
2023-03-03T21:03:14.826Z,8.50
2023-03-03T21:05:52.798Z,8.25
2023-03-03T21:08:19.552Z,8.65
2023-03-03T21:10:51.890Z,8.73
2023-03-03T21:13:32.672Z,9.07
2023-03-03T21:16:34.108Z,8.85
2023-03-03T21:19:11.409Z,8.88
2023-03-03T21:21:40.238Z,8.60
2023-03-03T21:24:08.492Z,8.82
2023-03-03T21:26:52.766Z,9.75
2023-03-03T21:29:27.112Z,9.95
2023-03-03T21:32:08.659Z,8.27
2023-03-03T21:34:36.798Z,8.52
2023-03-03T21:37:06.644Z,8.43
2023-03-03T21:39:39.367Z,8.25
2023-03-03T21:42:22.512Z,8.40
2023-03-03T21:47:33.508Z,8.68
2023-03-03T21:50:04.016Z,9.57
2023-03-03T21:52:34.562Z,9.52
2023-03-03T21:55:03.839Z,9.02
2023-03-03T21:57:32.859Z,8.90
2023-03-03T21:59:59.599Z,8.32
2023-03-03T22:02:26.340Z,8.98
2023-03-03T22:04:53.358Z,9.30
2023-03-03T22:07:20.088Z,10.10
2023-03-03T22:09:46.754Z,9.50
2023-03-03T22:12:13.738Z,9.95
2023-03-03T22:14:40.922Z,10.05
2023-03-03T22:17:07.958Z,9.55
2023-03-03T22:19:39.533Z,10.60
2023-03-03T22:22:09.740Z,9.10
2023-03-03T22:24:36.477Z,10.40
2023-03-03T22:27:04.027Z,10.27
2023-03-03T22:29:30.963Z,9.75
2023-03-03T22:31:57.683Z,9.75
2023-03-03T22:34:24.882Z,9.57
2023-03-03T22:39:17.168Z,9.70
2023-03-03T22:41:44.271Z,10.93
2023-03-03T22:44:11.010Z,10.63
2023-03-03T22:46:37.891Z,10.20
2023-03-03T22:49:06.051Z,10.13
2023-03-03T22:51:33.127Z,9.07
2023-03-03T22:54:00.000Z,10.25
2023-03-03T22:56:29.776Z,9.75
2023-03-03T22:58:56.941Z,11.25
2023-03-03T23:01:24.388Z,10.45
2023-03-03T23:06:17.506Z,11.25
2023-03-03T23:08:44.427Z,9.65
2023-03-03T23:11:11.325Z,10.25
2023-03-03T23:13:38.117Z,9.13
2023-03-03T23:16:05.216Z,10.30
2023-03-03T23:18:32.382Z,10.55
2023-03-03T23:20:59.114Z,10.93
2023-03-03T23:23:25.902Z,10.30
2023-03-03T23:25:52.973Z,10.15
2023-03-03T23:28:19.727Z,10.82
2023-03-03T23:30:46.848Z,12.20
2023-03-03T23:33:13.490Z,10.43
2023-03-03T23:35:41.414Z,10.43
2023-03-03T23:38:08.332Z,10.60
2023-03-03T23:40:35.075Z,11.15
2023-03-03T23:43:01.765Z,11.23
2023-03-03T23:45:28.575Z,10.52
2023-03-03T23:47:55.279Z,10.90
2023-03-03T23:50:21.962Z,10.65
2023-03-03T23:52:50.050Z,9.90
2023-03-03T23:55:16.755Z,10.75
2023-03-03T23:57:46.895Z,10.60
